Time;durP1;ratioP1;P1;durP2;ratioP2;P2;SDS_P1;SDS_P2;PMS_P1;PMS_P2;Temp;Humidity;BMP_temperature;BMP_pressure;BME280_temperature;BME280_humidity;BME280_pressure;Samples;Min_cycle;Max_cycle;Signal;HPM_P1;HPM_P2
2023/06/08 00:00:50;;;;;;;5.20;4.10;;;20.20;99.90;;;;;;5090823;28;20711;-72
2023/06/08 00:03:18;;;;;;;4.80;4.20;;;20.20;99.90;;;;;;5091312;28;20201;-73
2023/06/08 00:05:48;;;;;;;4.97;4.40;;;20.20;99.90;;;;;;5091062;28;20300;-77
2023/06/08 00:08:15;;;;;;;4.60;4.20;;;20.20;99.90;;;;;;5090908;28;20263;-73
2023/06/08 00:10:44;;;;;;;4.78;4.38;;;20.10;99.90;;;;;;5091001;28;20246;-73
2023/06/08 00:13:12;;;;;;;8.95;4.22;;;20.10;99.90;;;;;;5090670;28;20201;-73
2023/06/08 00:15:39;;;;;;;9.05;4.15;;;20.10;99.90;;;;;;5091225;28;20240;-73
2023/06/08 00:18:08;;;;;;;5.55;3.58;;;20.10;99.90;;;;;;5090772;28;20205;-72
2023/06/08 00:20:35;;;;;;;4.38;3.97;;;20.10;99.90;;;;;;5090964;28;20205;-72
2023/06/08 00:23:03;;;;;;;4.22;3.83;;;20.10;99.90;;;;;;5090155;28;20205;-73
2023/06/08 00:25:30;;;;;;;6.35;5.07;;;20.00;99.90;;;;;;5091212;28;20198;-73
2023/06/08 00:27:58;;;;;;;4.43;3.78;;;20.00;99.90;;;;;;5090444;28;20321;-73
2023/06/08 00:30:26;;;;;;;5.65;4.28;;;20.00;99.90;;;;;;5090740;28;20246;-73
2023/06/08 00:32:53;;;;;;;9.52;4.25;;;20.00;99.90;;;;;;5090481;28;20209;-72
2023/06/08 00:35:20;;;;;;;5.82;4.43;;;20.00;99.90;;;;;;5090639;28;20240;-74
2023/06/08 00:37:47;;;;;;;5.57;4.18;;;19.90;99.90;;;;;;5090271;28;20233;-75
2023/06/08 00:40:14;;;;;;;6.00;4.15;;;19.90;99.90;;;;;;5090311;28;20213;-75
2023/06/08 00:42:41;;;;;;;5.60;4.00;;;19.90;99.90;;;;;;5090731;28;20255;-76
2023/06/08 00:45:11;;;;;;;5.95;4.95;;;19.90;99.90;;;;;;5090546;28;20237;-75
2023/06/08 00:47:38;;;;;;;4.18;3.78;;;19.80;99.90;;;;;;5090771;28;20240;-75
2023/06/08 00:50:08;;;;;;;7.88;4.85;;;19.80;99.90;;;;;;5090114;28;20205;-75
2023/06/08 00:52:38;;;;;;;5.93;4.38;;;19.80;99.90;;;;;;5090788;28;20206;-76
2023/06/08 00:55:06;;;;;;;3.92;3.53;;;19.90;99.90;;;;;;5093509;28;20209;-75
2023/06/08 00:57:35;;;;;;;4.57;4.18;;;19.90;99.90;;;;;;5095143;28;20266;-74
2023/06/08 01:00:05;;;;;;;4.78;4.25;;;19.80;99.90;;;;;;5090139;28;20248;-75
2023/06/08 01:02:35;;;;;;;4.82;4.35;;;19.80;99.90;;;;;;5090183;28;20699;-79
2023/06/08 01:05:02;;;;;;;5.53;4.65;;;19.80;99.90;;;;;;5090027;28;20692;-75
2023/06/08 01:07:40;;;;;;;4.40;4.00;;;19.80;99.90;;;;;;5090390;28;20209;-75
2023/06/08 01:10:14;;;;;;;6.43;5.10;;;19.80;99.90;;;;;;5090310;28;20327;-75
2023/06/08 01:12:47;;;;;;;5.88;3.80;;;19.80;99.90;;;;;;5090130;28;20209;-75
2023/06/08 01:15:19;;;;;;;6.13;4.72;;;19.80;99.90;;;;;;5090377;28;20248;-74
2023/06/08 01:17:52;;;;;;;5.85;4.65;;;19.80;99.90;;;;;;5089769;28;20738;-74
2023/06/08 01:20:29;;;;;;;5.20;4.75;;;19.80;99.90;;;;;;5090325;28;20206;-74
2023/06/08 01:23:09;;;;;;;5.10;4.60;;;19.80;99.90;;;;;;5090167;28;20205;-74
2023/06/08 01:25:39;;;;;;;5.35;3.78;;;19.80;99.90;;;;;;5090180;28;20720;-74
2023/06/08 01:28:13;;;;;;;4.70;4.15;;;19.80;99.90;;;;;;5094015;28;20241;-72
2023/06/08 01:30:41;;;;;;;6.10;5.57;;;19.80;99.90;;;;;;5099370;28;20217;-73
2023/06/08 01:33:08;;;;;;;3.78;3.47;;;19.80;99.90;;;;;;5094186;28;20201;-73
2023/06/08 01:35:35;;;;;;;6.60;5.07;;;19.70;99.90;;;;;;5093800;28;20237;-73
2023/06/08 01:38:10;;;;;;;4.40;4.10;;;19.70;99.90;;;;;;5093408;28;20267;-72
2023/06/08 01:40:43;;;;;;;6.10;4.43;;;19.80;99.90;;;;;;5093942;28;20699;-73
2023/06/08 01:43:10;;;;;;;4.85;4.45;;;19.80;99.90;;;;;;5093980;28;20635;-72
2023/06/08 01:45:41;;;;;;;5.13;4.53;;;19.70;99.90;;;;;;5094118;28;20583;-74
2023/06/08 01:48:09;;;;;;;5.63;4.55;;;19.80;99.90;;;;;;5093367;28;20233;-74
2023/06/08 01:50:37;;;;;;;10.20;4.47;;;19.70;99.90;;;;;;5093997;28;20278;-72
2023/06/08 01:53:05;;;;;;;5.03;4.22;;;19.70;99.90;;;;;;5093213;28;20736;-74
2023/06/08 01:55:32;;;;;;;4.47;4.07;;;19.70;99.90;;;;;;5093066;28;20663;-73
2023/06/08 01:58:00;;;;;;;4.60;4.20;;;19.80;99.90;;;;;;5093397;28;20249;-74
2023/06/08 02:00:27;;;;;;;4.57;4.28;;;19.70;99.90;;;;;;5093496;28;20233;-75
2023/06/08 02:02:54;;;;;;;4.32;4.03;;;19.80;99.90;;;;;;5093048;28;20677;-74
2023/06/08 02:05:20;;;;;;;5.00;4.60;;;19.80;99.90;;;;;;5093069;28;20242;-74
2023/06/08 02:07:48;;;;;;;4.88;3.50;;;19.80;99.90;;;;;;5093123;28;20209;-73
2023/06/08 02:10:16;;;;;;;5.10;4.47;;;19.80;99.90;;;;;;5093301;28;20327;-73
2023/06/08 02:12:43;;;;;;;4.18;3.88;;;19.70;99.90;;;;;;5093031;28;20208;-73
2023/06/08 02:15:11;;;;;;;4.65;4.25;;;19.70;99.90;;;;;;5093471;28;20731;-74
2023/06/08 02:17:38;;;;;;;5.25;4.00;;;19.80;99.90;;;;;;5093275;28;20248;-81
2023/06/08 02:20:07;;;;;;;5.35;4.95;;;19.80;99.90;;;;;;5092988;28;20248;-73
2023/06/08 02:22:35;;;;;;;4.63;4.20;;;19.80;99.90;;;;;;5093021;28;20205;-81
2023/06/08 02:25:02;;;;;;;4.47;4.07;;;19.80;99.90;;;;;;5092547;28;20206;-74
2023/06/08 02:27:29;;;;;;;4.95;3.92;;;19.80;99.90;;;;;;5093057;28;20205;-75
2023/06/08 02:29:56;;;;;;;5.57;4.82;;;19.80;99.90;;;;;;5092516;28;20237;-74
2023/06/08 02:32:25;;;;;;;6.40;4.10;;;19.70;99.90;;;;;;5092760;28;20629;-74
2023/06/08 02:34:55;;;;;;;5.18;4.65;;;19.70;99.90;;;;;;5092585;28;20256;-72
2023/06/08 02:37:23;;;;;;;4.95;3.97;;;19.80;99.90;;;;;;5092458;28;20205;-72
2023/06/08 02:39:50;;;;;;;5.03;4.63;;;19.80;99.90;;;;;;5091801;28;20205;-73
2023/06/08 02:42:18;;;;;;;4.38;4.03;;;19.70;99.90;;;;;;5092636;28;20589;-72
2023/06/08 02:44:45;;;;;;;4.82;4.43;;;19.70;99.90;;;;;;5091892;28;20205;-73
2023/06/08 02:47:12;;;;;;;4.40;4.00;;;19.70;99.90;;;;;;5092640;28;20683;-72
2023/06/08 02:49:41;;;;;;;5.38;4.70;;;19.70;99.90;;;;;;5092850;28;20328;-72
2023/06/08 02:52:08;;;;;;;5.85;4.60;;;19.70;99.90;;;;;;5092599;28;20236;-73
2023/06/08 02:54:36;;;;;;;5.90;4.75;;;19.70;99.90;;;;;;5092239;28;20249;-73
2023/06/08 02:57:03;;;;;;;7.55;6.22;;;19.60;99.90;;;;;;5095240;28;20205;-73
2023/06/08 02:59:31;;;;;;;4.32;4.03;;;19.60;99.90;;;;;;5092371;28;20263;-73
2023/06/08 03:01:58;;;;;;;4.32;3.92;;;19.60;99.90;;;;;;5091690;28;20263;-79
2023/06/08 03:04:28;;;;;;;7.75;5.03;;;19.60;99.90;;;;;;5092576;28;20233;-74
2023/06/08 03:06:57;;;;;;;4.72;4.32;;;19.60;99.90;;;;;;5091464;28;20216;-73
2023/06/08 03:09:25;;;;;;;6.25;4.70;;;19.60;99.90;;;;;;5092104;28;20221;-72
2023/06/08 03:11:52;;;;;;;5.00;4.60;;;19.60;99.90;;;;;;5091493;28;20213;-72
2023/06/08 03:14:20;;;;;;;6.03;5.07;;;19.60;99.90;;;;;;5092396;28;20233;-73
2023/06/08 03:16:48;;;;;;;5.43;4.47;;;19.60;99.90;;;;;;5091894;28;20278;-74
2023/06/08 03:19:15;;;;;;;6.32;4.80;;;19.60;99.90;;;;;;5091880;28;20241;-73
2023/06/08 03:21:42;;;;;;;5.40;4.55;;;19.60;99.90;;;;;;5091757;28;20205;-73
2023/06/08 03:24:11;;;;;;;5.15;4.47;;;19.60;99.90;;;;;;5092153;28;20580;-73
2023/06/08 03:26:38;;;;;;;5.25;4.13;;;19.60;99.90;;;;;;5092433;28;20209;-73
2023/06/08 03:29:06;;;;;;;5.28;4.85;;;19.60;99.90;;;;;;5090090;28;20688;-77
2023/06/08 03:31:36;;;;;;;4.78;4.32;;;19.60;99.90;;;;;;5091623;28;20241;-78
2023/06/08 03:34:03;;;;;;;5.35;4.85;;;19.70;99.90;;;;;;5090925;28;20694;-77
2023/06/08 03:36:33;;;;;;;6.63;5.18;;;19.70;99.90;;;;;;5091704;28;20636;-72
2023/06/08 03:39:01;;;;;;;6.65;4.88;;;19.60;99.90;;;;;;5091029;28;20209;-73
2023/06/08 03:41:29;;;;;;;5.22;4.82;;;19.60;99.90;;;;;;5091678;28;20202;-77
2023/06/08 03:43:58;;;;;;;6.25;5.15;;;19.60;99.90;;;;;;5091318;28;20233;-77
2023/06/08 03:46:25;;;;;;;6.47;5.88;;;19.60;99.90;;;;;;5091191;28;20212;-73
2023/06/08 03:48:52;;;;;;;5.13;4.55;;;19.60;99.90;;;;;;5090286;28;20232;-73
2023/06/08 03:51:21;;;;;;;5.88;5.28;;;19.60;99.90;;;;;;5090407;28;20241;-73
2023/06/08 03:53:48;;;;;;;5.68;5.18;;;19.60;99.90;;;;;;5090460;28;20215;-72
2023/06/08 03:56:15;;;;;;;5.25;4.85;;;19.60;99.90;;;;;;5090683;28;20235;-75
2023/06/08 03:58:44;;;;;;;6.20;5.65;;;19.60;99.90;;;;;;5091124;28;20209;-75
2023/06/08 04:01:11;;;;;;;5.63;5.05;;;19.60;99.90;;;;;;5091499;28;20604;-75
2023/06/08 04:03:39;;;;;;;4.95;4.55;;;19.60;99.90;;;;;;5091435;28;20232;-73
2023/06/08 04:06:08;;;;;;;6.25;5.13;;;19.60;99.90;;;;;;5090400;28;20248;-73
2023/06/08 04:08:35;;;;;;;8.60;5.63;;;19.60;99.90;;;;;;5090856;28;20202;-74
2023/06/08 04:11:02;;;;;;;6.53;5.07;;;19.60;99.90;;;;;;5090834;28;20318;-73
2023/06/08 04:13:30;;;;;;;4.95;4.50;;;19.60;99.90;;;;;;5091066;28;20241;-73
2023/06/08 04:15:59;;;;;;;5.38;4.97;;;19.60;99.90;;;;;;5090689;28;20239;-73
2023/06/08 04:18:26;;;;;;;5.63;5.03;;;19.60;99.90;;;;;;5090721;28;20595;-73
2023/06/08 04:20:53;;;;;;;7.18;4.63;;;19.60;99.90;;;;;;5090215;28;20688;-73
2023/06/08 04:23:20;;;;;;;7.55;4.95;;;19.60;99.90;;;;;;5091121;28;20229;-73
2023/06/08 04:25:47;;;;;;;4.70;4.40;;;19.60;99.90;;;;;;5090465;28;20247;-72
2023/06/08 04:28:15;;;;;;;5.80;5.20;;;19.60;99.90;;;;;;5090720;28;20205;-73
2023/06/08 04:30:44;;;;;;;5.78;5.22;;;19.60;99.90;;;;;;5090444;28;20789;-73
2023/06/08 04:33:12;;;;;;;5.38;4.93;;;19.60;99.90;;;;;;5090975;28;20217;-73
2023/06/08 04:35:40;;;;;;;5.90;5.30;;;19.60;99.90;;;;;;5090796;28;20201;-73
2023/06/08 04:38:14;;;;;;;6.45;5.85;;;19.60;99.90;;;;;;5090730;28;20209;-72
2023/06/08 04:40:45;;;;;;;5.57;5.07;;;19.60;99.90;;;;;;5090671;28;20709;-74
2023/06/08 04:43:13;;;;;;;6.88;6.25;;;19.60;99.90;;;;;;5090374;28;20202;-73
2023/06/08 04:45:43;;;;;;;6.05;5.45;;;19.60;99.90;;;;;;5090826;28;20209;-73
2023/06/08 04:48:11;;;;;;;5.60;4.95;;;19.60;99.90;;;;;;5090548;28;20292;-75
2023/06/08 04:50:45;;;;;;;6.88;6.20;;;19.60;99.90;;;;;;5090817;28;20261;-73
2023/06/08 04:53:12;;;;;;;5.68;4.63;;;19.60;99.90;;;;;;5090163;28;20661;-73
2023/06/08 04:55:44;;;;;;;5.57;5.07;;;19.60;99.90;;;;;;5090649;28;20244;-73
2023/06/08 04:58:12;;;;;;;6.30;5.45;;;19.50;99.90;;;;;;5093505;28;20213;-73
2023/06/08 05:00:39;;;;;;;5.80;5.30;;;19.60;99.90;;;;;;5092796;28;20252;-74
2023/06/08 05:03:06;;;;;;;7.22;5.78;;;19.70;99.90;;;;;;5093808;28;20559;-77
2023/06/08 05:05:34;;;;;;;6.15;4.70;;;19.70;99.90;;;;;;5094467;28;20283;-73
2023/06/08 05:08:01;;;;;;;5.65;5.18;;;19.70;99.90;;;;;;5098903;28;20248;-74
2023/06/08 05:10:28;;;;;;;6.25;5.65;;;19.70;99.90;;;;;;5094766;28;20265;-76
2023/06/08 05:12:56;;;;;;;6.78;6.13;;;19.70;99.90;;;;;;5101615;28;20241;-73
2023/06/08 05:15:23;;;;;;;6.05;5.22;;;19.70;99.90;;;;;;5106821;28;20287;-71
2023/06/08 05:17:51;;;;;;;5.75;4.88;;;19.80;99.90;;;;;;5094047;28;20205;-71
2023/06/08 05:20:19;;;;;;;6.90;6.20;;;19.90;99.90;;;;;;5094286;28;20233;-70
2023/06/08 05:22:47;;;;;;;9.98;5.82;;;19.90;99.90;;;;;;5093013;28;20730;-73
2023/06/08 05:25:14;;;;;;;5.32;4.85;;;20.00;99.90;;;;;;5098824;28;20237;-71
2023/06/08 05:27:41;;;;;;;6.35;5.15;;;20.20;99.90;;;;;;5106289;28;20236;-73
2023/06/08 05:30:09;;;;;;;5.43;4.93;;;20.10;99.90;;;;;;5104507;28;20257;-76
2023/06/08 05:32:36;;;;;;;5.68;5.03;;;20.20;99.90;;;;;;5106925;28;20197;-73
2023/06/08 05:35:03;;;;;;;5.55;4.80;;;20.10;99.90;;;;;;5106700;28;20660;-73
2023/06/08 05:37:30;;;;;;;5.85;5.35;;;20.20;99.90;;;;;;5101726;28;20247;-77
2023/06/08 05:40:00;;;;;;;7.65;5.30;;;20.20;99.90;;;;;;5093516;28;20266;-73
2023/06/08 05:42:27;;;;;;;5.95;5.43;;;20.30;99.90;;;;;;5095043;28;20233;-72
2023/06/08 05:44:53;;;;;;;5.32;4.85;;;20.30;99.90;;;;;;5093858;28;20233;-73
2023/06/08 05:47:20;;;;;;;5.75;5.32;;;20.40;99.90;;;;;;5094143;28;20237;-76
2023/06/08 05:49:47;;;;;;;6.95;3.88;;;20.40;99.90;;;;;;5093208;28;20312;-72
2023/06/08 05:52:14;;;;;;;6.00;4.95;;;20.50;99.90;;;;;;5098235;28;20209;-71
2023/06/08 05:54:41;;;;;;;6.15;4.68;;;20.50;99.90;;;;;;5099714;28;20217;-72
2023/06/08 05:57:10;;;;;;;4.78;4.32;;;20.70;99.90;;;;;;5093609;28;20683;-72
2023/06/08 05:59:36;;;;;;;5.40;4.90;;;20.70;99.90;;;;;;5094136;28;20215;-72
2023/06/08 06:02:04;;;;;;;5.30;4.80;;;20.80;99.90;;;;;;5098577;28;20240;-72
2023/06/08 06:04:31;;;;;;;5.07;4.57;;;20.90;99.90;;;;;;5093569;28;20610;-72
2023/06/08 06:06:58;;;;;;;7.30;5.07;;;20.90;99.90;;;;;;5092824;28;20669;-74
2023/06/08 06:09:25;;;;;;;7.15;4.70;;;21.00;99.90;;;;;;5095512;28;20266;-73
2023/06/08 06:11:52;;;;;;;7.57;4.68;;;21.10;99.90;;;;;;5097628;28;20205;-76
2023/06/08 06:14:20;;;;;;;8.15;5.47;;;21.20;99.90;;;;;;5103718;28;20236;-74
2023/06/08 06:16:47;;;;;;;8.40;4.68;;;21.30;99.90;;;;;;5100428;28;20283;-78
2023/06/08 06:19:14;;;;;;;4.57;4.22;;;21.30;99.90;;;;;;5110647;28;20239;-74
2023/06/08 06:21:41;;;;;;;5.93;4.25;;;21.30;99.90;;;;;;5105783;28;20270;-73
2023/06/08 06:24:08;;;;;;;5.90;4.28;;;21.50;99.90;;;;;;5105231;28;20228;-74
2023/06/08 06:26:34;;;;;;;5.22;4.82;;;21.60;99.90;;;;;;5107818;28;20263;-74
2023/06/08 06:29:01;;;;;;;5.65;5.18;;;21.60;99.90;;;;;;5105655;28;20759;-73
2023/06/08 06:31:31;;;;;;;6.53;5.82;;;21.60;99.90;;;;;;5108221;28;20279;-73
2023/06/08 06:33:57;;;;;;;6.13;5.15;;;21.60;99.90;;;;;;5096440;28;20233;-73
2023/06/08 06:36:26;;;;;;;5.03;4.63;;;21.70;99.90;;;;;;5105609;28;20236;-75
2023/06/08 06:38:54;;;;;;;6.07;5.63;;;21.70;99.90;;;;;;5095202;28;20288;-74
2023/06/08 06:41:21;;;;;;;5.63;5.05;;;21.70;99.90;;;;;;5092550;28;20202;-76
2023/06/08 06:43:48;;;;;;;6.00;5.13;;;21.80;99.90;;;;;;5092316;28;20699;-75
2023/06/08 06:46:19;;;;;;;4.10;3.80;;;21.80;99.90;;;;;;5092300;28;20236;-78
2023/06/08 06:48:47;;;;;;;6.85;4.13;;;22.10;99.90;;;;;;5092361;28;20627;-73
2023/06/08 06:51:14;;;;;;;6.30;5.70;;;22.50;99.90;;;;;;5096164;28;20272;-75
2023/06/08 06:53:41;;;;;;;5.47;4.35;;;22.50;99.90;;;;;;5097467;28;20354;-74
2023/06/08 06:56:08;;;;;;;5.68;4.28;;;22.40;99.90;;;;;;5093535;28;20590;-74
2023/06/08 06:58:35;;;;;;;4.15;3.80;;;22.50;99.90;;;;;;5097845;28;20232;-75
2023/06/08 07:01:03;;;;;;;5.10;4.63;;;22.60;99.90;;;;;;5097837;28;20762;-78
2023/06/08 07:03:30;;;;;;;5.40;4.90;;;22.40;99.90;;;;;;5101117;28;20626;-79
2023/06/08 07:05:58;;;;;;;5.10;4.65;;;22.20;99.90;;;;;;5097456;28;20237;-79
2023/06/08 07:08:26;;;;;;;5.43;4.93;;;22.20;99.90;;;;;;5097883;28;20208;-82
2023/06/08 07:10:53;;;;;;;6.85;5.57;;;22.10;99.90;;;;;;5100705;28;20272;-75
2023/06/08 07:13:20;;;;;;;5.75;4.88;;;22.40;99.90;;;;;;5107827;28;20240;-76
2023/06/08 07:15:47;;;;;;;5.70;5.30;;;22.50;99.90;;;;;;5099178;28;20232;-76
2023/06/08 07:18:14;;;;;;;6.60;5.20;;;22.40;99.90;;;;;;5098162;28;20223;-76
2023/06/08 07:20:41;;;;;;;4.40;3.92;;;22.50;99.90;;;;;;5107262;28;20291;-75
2023/06/08 07:23:09;;;;;;;6.88;5.35;;;22.60;99.90;;;;;;5103645;28;20232;-76
2023/06/08 07:25:37;;;;;;;4.95;3.90;;;22.80;99.90;;;;;;5099725;28;20628;-74
2023/06/08 07:28:05;;;;;;;4.90;3.88;;;23.10;99.90;;;;;;5096591;28;20209;-75
2023/06/08 07:30:32;;;;;;;7.63;4.80;;;23.60;99.90;;;;;;5097698;28;20660;-74
2023/06/08 07:32:59;;;;;;;4.78;4.38;;;23.20;99.90;;;;;;5092969;28;20208;-77
2023/06/08 07:35:26;;;;;;;7.25;4.05;;;23.10;99.90;;;;;;5100741;28;20236;-75
2023/06/08 07:37:53;;;;;;;4.90;4.25;;;22.90;99.90;;;;;;5096202;28;20260;-76
2023/06/08 07:40:21;;;;;;;6.97;4.65;;;23.10;99.90;;;;;;5097284;28;20706;-77
2023/06/08 07:42:49;;;;;;;5.03;4.40;;;23.10;99.90;;;;;;5094287;28;20233;-76
2023/06/08 07:45:16;;;;;;;4.90;4.38;;;23.20;99.90;;;;;;5111502;28;20239;-75
2023/06/08 07:47:43;;;;;;;4.38;4.07;;;23.30;99.90;;;;;;5102425;28;20241;-76
2023/06/08 07:50:11;;;;;;;7.38;4.38;;;23.40;99.90;;;;;;5107099;28;20245;-77
2023/06/08 07:52:38;;;;;;;4.25;3.90;;;23.20;99.90;;;;;;5107102;28;20247;-75
2023/06/08 07:55:06;;;;;;;3.25;3.05;;;23.30;99.90;;;;;;5099900;28;20252;-75
2023/06/08 07:57:36;;;;;;;7.55;4.20;;;23.60;99.90;;;;;;5095853;28;20635;-76
2023/06/08 08:00:09;;;;;;;5.50;3.90;;;23.90;99.90;;;;;;5105380;28;20215;-78
2023/06/08 08:02:36;;;;;;;4.35;3.95;;;24.10;99.90;;;;;;5098586;28;20201;-77
2023/06/08 08:05:03;;;;;;;3.70;3.40;;;24.10;99.90;;;;;;5096513;28;20244;-76
2023/06/08 08:07:30;;;;;;;6.00;3.83;;;24.10;99.90;;;;;;5092492;28;20205;-76
2023/06/08 08:09:57;;;;;;;4.00;3.70;;;24.20;99.90;;;;;;5091844;28;20206;-76
2023/06/08 08:12:24;;;;;;;4.43;4.10;;;24.30;99.90;;;;;;5090827;28;20255;-78
2023/06/08 08:14:53;;;;;;;3.63;3.33;;;24.40;99.90;;;;;;5096910;28;20653;-76
2023/06/08 08:17:20;;;;;;;6.45;4.03;;;24.60;99.90;;;;;;5096554;28;20725;-78
2023/06/08 08:19:46;;;;;;;5.47;4.07;;;24.50;99.90;;;;;;5110446;28;20293;-76
2023/06/08 08:22:13;;;;;;;4.60;3.28;;;24.50;99.90;;;;;;5096869;28;20695;-77
2023/06/08 08:24:40;;;;;;;3.67;3.15;;;24.60;99.90;;;;;;5099038;28;20261;-77
2023/06/08 08:27:07;;;;;;;3.38;3.08;;;24.70;99.90;;;;;;5105622;28;20258;-77
2023/06/08 08:29:34;;;;;;;4.95;4.18;;;24.50;99.90;;;;;;5098310;28;20237;-78
2023/06/08 08:32:02;;;;;;;5.55;3.53;;;24.30;99.90;;;;;;5093380;28;20280;-77
2023/06/08 08:34:29;;;;;;;4.03;3.70;;;24.30;99.90;;;;;;5096128;28;20317;-81
2023/06/08 08:36:56;;;;;;;4.20;3.85;;;24.50;99.90;;;;;;5107414;28;20253;-77
2023/06/08 08:39:23;;;;;;;4.25;3.85;;;24.60;99.90;;;;;;5094483;28;20569;-76
2023/06/08 08:41:56;;;;;;;3.65;3.35;;;24.30;99.90;;;;;;5107041;28;20201;-79
2023/06/08 08:44:23;;;;;;;4.22;3.92;;;24.50;99.90;;;;;;5105921;28;20213;-78
2023/06/08 08:46:50;;;;;;;3.80;3.50;;;24.50;99.90;;;;;;5099324;28;20229;-77
2023/06/08 08:49:21;;;;;;;5.25;4.05;;;24.40;99.90;;;;;;5101736;28;20229;-77
2023/06/08 08:51:50;;;;;;;5.70;3.60;;;24.70;99.90;;;;;;5096069;28;20232;-78
2023/06/08 08:54:31;;;;;;;4.40;4.00;;;25.20;99.90;;;;;;5097793;28;20217;-76
2023/06/08 08:56:59;;;;;;;3.97;3.67;;;25.30;99.90;;;;;;5099666;28;20561;-78
2023/06/08 08:59:28;;;;;;;4.82;4.38;;;25.50;99.90;;;;;;5108548;28;20232;-77
2023/06/08 09:01:55;;;;;;;4.28;3.28;;;25.40;99.90;;;;;;5104747;28;20562;-77
2023/06/08 09:04:24;;;;;;;5.38;3.95;;;24.70;99.90;;;;;;5106797;28;20680;-76
2023/06/08 09:06:52;;;;;;;4.13;3.35;;;25.30;99.90;;;;;;5102033;28;20211;-77
2023/06/08 09:09:19;;;;;;;3.38;3.08;;;25.70;99.90;;;;;;5094155;28;20236;-77
2023/06/08 09:11:58;;;;;;;5.28;4.18;;;25.40;99.90;;;;;;5092110;28;20363;-77
2023/06/08 09:14:25;;;;;;;4.47;4.07;;;25.60;99.90;;;;;;5103838;28;20576;-77
2023/06/08 09:16:53;;;;;;;4.13;3.72;;;25.20;99.90;;;;;;5097546;28;20237;-75
2023/06/08 09:19:22;;;;;;;5.43;3.55;;;25.40;99.90;;;;;;5103622;28;20209;-77
2023/06/08 09:21:51;;;;;;;3.78;3.47;;;26.30;99.90;;;;;;5096668;28;20197;-76
2023/06/08 09:24:20;;;;;;;9.15;4.25;;;25.80;99.90;;;;;;5102237;28;20215;-76
2023/06/08 09:26:48;;;;;;;9.23;4.07;;;26.30;99.90;;;;;;5094945;28;20258;-76
2023/06/08 09:29:36;;;;;;;4.50;4.07;;;25.50;99.90;;;;;;5100560;28;20212;-76
2023/06/08 09:32:04;;;;;;;4.45;3.83;;;25.50;99.90;;;;;;5089733;28;20687;-76
2023/06/08 09:34:33;;;;;;;4.28;3.88;;;25.70;99.90;;;;;;5099550;28;20198;-75
2023/06/08 09:37:09;;;;;;;4.78;3.67;;;24.70;99.90;;;;;;5092961;28;20209;-76
2023/06/08 09:39:40;;;;;;;6.13;3.88;;;24.90;99.90;;;;;;5094836;28;20248;-73
2023/06/08 09:42:08;;;;;;;5.07;4.57;;;25.30;99.90;;;;;;5106859;28;20216;-76
2023/06/08 09:44:35;;;;;;;3.88;3.58;;;25.40;99.90;;;;;;5107950;28;20209;-77
2023/06/08 09:47:21;;;;;;;4.45;3.75;;;25.40;99.90;;;;;;5108491;28;20215;-77
2023/06/08 09:49:49;;;;;;;4.85;4.35;;;25.40;99.90;;;;;;5109061;28;20740;-78
2023/06/08 09:52:19;;;;;;;4.40;4.10;;;25.20;99.90;;;;;;5108891;28;20236;-76
2023/06/08 09:54:47;;;;;;;4.32;4.03;;;26.10;99.90;;;;;;5105238;28;20667;-77
2023/06/08 09:57:16;;;;;;;7.72;4.00;;;28.50;99.90;;;;;;5110753;28;20232;-76
2023/06/08 09:59:47;;;;;;;4.78;4.22;;;30.70;99.90;;;;;;5107124;28;20229;-80
2023/06/08 10:02:22;;;;;;;3.97;3.67;;;31.20;99.90;;;;;;5099731;28;20296;-76
2023/06/08 10:04:54;;;;;;;4.97;4.32;;;31.10;99.90;;;;;;5104679;28;20201;-75
2023/06/08 10:07:25;;;;;;;5.72;4.97;;;31.20;99.90;;;;;;5099664;28;20232;-75
2023/06/08 10:09:59;;;;;;;3.67;3.38;;;33.30;99.90;;;;;;5102667;28;20706;-75
2023/06/08 10:12:29;;;;;;;3.35;3.13;;;35.90;99.90;;;;;;5095708;28;20791;-74
2023/06/08 10:14:57;;;;;;;4.78;4.38;;;35.80;99.90;;;;;;5111397;28;20268;-75
2023/06/08 10:17:26;;;;;;;3.33;3.00;;;35.60;99.90;;;;;;5110739;28;20413;-73
2023/06/08 10:19:53;;;;;;;5.63;3.72;;;32.30;99.90;;;;;;5112017;28;20219;-74
2023/06/08 10:22:23;;;;;;;4.32;3.67;;;33.80;99.90;;;;;;5109767;28;20203;-74
2023/06/08 10:24:50;;;;;;;3.22;2.88;;;34.80;99.90;;;;;;5109390;28;20619;-74
2023/06/08 10:27:29;;;;;;;3.67;3.38;;;30.20;99.90;;;;;;5107491;28;20228;-75
2023/06/08 10:29:57;;;;;;;3.70;3.40;;;33.40;99.90;;;;;;5109735;28;20679;-73
2023/06/08 10:32:31;;;;;;;6.07;3.83;;;30.80;99.90;;;;;;5107953;28;20720;-73
2023/06/08 10:34:58;;;;;;;5.13;3.92;;;28.30;99.90;;;;;;5110358;28;20209;-75
2023/06/08 10:37:31;;;;;;;3.92;3.35;;;27.70;99.90;;;;;;5108542;28;20216;-75
2023/06/08 10:39:59;;;;;;;3.28;3.08;;;27.50;99.90;;;;;;5093155;28;20233;-73
2023/06/08 10:42:26;;;;;;;3.83;3.20;;;27.00;99.90;;;;;;5093052;28;20206;-73
2023/06/08 10:44:57;;;;;;;3.65;3.45;;;27.30;99.90;;;;;;5092427;28;20258;-74
2023/06/08 10:47:25;;;;;;;4.03;3.42;;;27.10;99.90;;;;;;5092777;28;20281;-74
2023/06/08 10:50:00;;;;;;;4.03;3.63;;;27.20;99.90;;;;;;5092203;28;20241;-75
2023/06/08 10:52:27;;;;;;;3.78;3.17;;;27.50;99.90;;;;;;5092309;28;20738;-74
2023/06/08 10:54:59;;;;;;;6.10;5.20;;;27.30;99.90;;;;;;5092055;28;20224;-75
2023/06/08 10:57:40;;;;;;;5.80;4.55;;;27.50;99.90;;;;;;5092460;28;20212;-74
2023/06/08 11:00:42;;;;;;;4.10;3.63;;;27.10;99.90;;;;;;5092386;28;20237;-74
2023/06/08 11:03:14;;;;;;;4.07;3.38;;;26.90;99.90;;;;;;5092514;28;20205;-75
2023/06/08 11:05:43;;;;;;;4.50;3.70;;;26.60;99.90;;;;;;5091979;28;20228;-74
2023/06/08 11:08:11;;;;;;;4.20;3.75;;;26.90;99.90;;;;;;5092890;28;20281;-74
2023/06/08 11:10:40;;;;;;;5.13;3.20;;;27.30;99.90;;;;;;5092527;28;20204;-75
2023/06/08 11:13:08;;;;;;;4.45;4.05;;;27.00;99.90;;;;;;5092019;28;20279;-74
2023/06/08 11:15:36;;;;;;;3.65;3.40;;;27.10;99.90;;;;;;5092196;28;20202;-73
2023/06/08 11:18:04;;;;;;;4.13;3.72;;;27.30;99.90;;;;;;5091973;28;20218;-73
2023/06/08 11:20:32;;;;;;;3.75;3.42;;;27.50;99.90;;;;;;5091885;28;20215;-74
2023/06/08 11:23:01;;;;;;;4.70;3.20;;;27.40;99.90;;;;;;5096421;28;20274;-75
2023/06/08 11:25:29;;;;;;;3.50;3.13;;;27.40;99.90;;;;;;5096390;28;20233;-73
2023/06/08 11:27:57;;;;;;;10.38;3.67;;;27.10;99.90;;;;;;5091549;28;20251;-75
2023/06/08 11:30:27;;;;;;;3.78;3.25;;;27.10;99.90;;;;;;5094516;28;20233;-74
2023/06/08 11:32:55;;;;;;;4.97;3.90;;;27.00;99.90;;;;;;5105993;28;20234;-74
2023/06/08 11:35:22;;;;;;;11.93;10.80;;;27.00;99.90;;;;;;5094886;28;20252;-74
2023/06/08 11:37:50;;;;;;;8.98;3.95;;;27.40;99.90;;;;;;5102542;28;20201;-74
2023/06/08 11:40:17;;;;;;;5.07;3.67;;;27.30;99.90;;;;;;5091397;28;20248;-74
2023/06/08 11:42:44;;;;;;;3.70;3.40;;;27.50;99.90;;;;;;5091519;28;20229;-73
2023/06/08 11:45:14;;;;;;;3.67;3.30;;;27.30;99.90;;;;;;5091688;28;20241;-74
2023/06/08 11:47:42;;;;;;;4.78;3.08;;;26.80;99.90;;;;;;5091822;28;20628;-74
2023/06/08 11:50:12;;;;;;;3.88;3.05;;;26.60;99.90;;;;;;5092295;28;20244;-74
2023/06/08 11:52:41;;;;;;;3.08;2.80;;;26.80;99.90;;;;;;5098364;28;20282;-74
2023/06/08 11:55:13;;;;;;;5.45;3.60;;;27.10;99.90;;;;;;5095376;28;20248;-74
2023/06/08 11:57:42;;;;;;;4.93;4.20;;;27.30;99.90;;;;;;5091741;28;20208;-73
2023/06/08 12:00:12;;;;;;;3.40;3.10;;;26.90;99.90;;;;;;5097763;28;20281;-74
2023/06/08 12:02:41;;;;;;;4.28;3.25;;;27.10;99.90;;;;;;5107801;28;20273;-74
2023/06/08 12:05:15;;;;;;;4.53;4.10;;;27.30;99.90;;;;;;5099338;28;20301;-73
2023/06/08 12:07:53;;;;;;;4.40;3.83;;;27.10;99.90;;;;;;5102718;28;20212;-72
2023/06/08 12:10:20;;;;;;;5.18;4.22;;;27.30;99.90;;;;;;5098891;28;20670;-73
2023/06/08 12:12:48;;;;;;;5.10;4.25;;;27.20;99.90;;;;;;5108806;28;20271;-72
2023/06/08 12:15:16;;;;;;;4.38;3.88;;;27.00;99.90;;;;;;5100751;28;20662;-73
2023/06/08 12:17:45;;;;;;;4.38;3.95;;;26.70;99.90;;;;;;5107728;28;20201;-73
2023/06/08 12:20:15;;;;;;;9.43;4.57;;;26.50;99.90;;;;;;5093532;28;20209;-73
2023/06/08 12:22:42;;;;;;;3.92;3.63;;;26.60;99.90;;;;;;5099884;28;20673;-72
2023/06/08 12:25:09;;;;;;;5.00;4.57;;;26.90;99.90;;;;;;5098653;28;20205;-74
2023/06/08 12:27:39;;;;;;;4.55;3.90;;;26.60;99.90;;;;;;5103212;28;20205;-73
2023/06/08 12:30:07;;;;;;;6.03;3.47;;;26.90;99.90;;;;;;5097540;28;20212;-73
2023/06/08 12:32:34;;;;;;;4.93;4.00;;;27.00;99.90;;;;;;5100811;28;20319;-73
2023/06/08 12:35:03;;;;;;;9.60;4.45;;;27.00;99.90;;;;;;5098482;28;20263;-72
2023/06/08 12:37:30;;;;;;;5.75;4.43;;;26.80;99.90;;;;;;5098965;28;20208;-72
2023/06/08 12:39:58;;;;;;;4.88;4.45;;;27.00;99.90;;;;;;5102105;28;20584;-73
2023/06/08 12:42:25;;;;;;;4.15;3.83;;;26.90;99.90;;;;;;5093210;28;20233;-73
2023/06/08 12:44:53;;;;;;;5.82;4.90;;;27.00;99.90;;;;;;5093572;28;20210;-72
2023/06/08 12:47:20;;;;;;;5.18;4.68;;;26.70;99.90;;;;;;5090828;28;20206;-73
2023/06/08 12:49:47;;;;;;;5.15;3.95;;;26.60;99.90;;;;;;5097824;28;20224;-73
2023/06/08 12:52:18;;;;;;;4.47;4.07;;;26.60;99.90;;;;;;5105343;28;20266;-73